createdAt,value
2023-01-08T06:02:25.925Z,99.90
2023-01-08T06:07:30.578Z,99.90
2023-01-08T06:12:34.337Z,99.90
2023-01-08T06:17:39.571Z,99.90
2023-01-08T06:22:43.171Z,99.90
2023-01-08T06:27:51.295Z,99.90
2023-01-08T06:32:58.441Z,99.90
2023-01-08T06:38:02.101Z,99.90
2023-01-08T06:43:07.137Z,99.90
2023-01-08T06:48:12.094Z,99.90
2023-01-08T06:53:15.787Z,99.90
2023-01-08T06:58:19.430Z,99.90
2023-01-08T07:03:24.470Z,99.90
2023-01-08T07:08:28.147Z,99.90
2023-01-08T07:13:31.812Z,99.90
2023-01-08T07:18:37.469Z,99.90
2023-01-08T07:23:41.995Z,99.90
2023-01-08T07:28:45.806Z,99.90
2023-01-08T07:33:51.109Z,99.90
2023-01-08T07:43:58.926Z,99.90
2023-01-08T07:49:03.965Z,99.90
2023-01-08T07:54:07.915Z,99.90
2023-01-08T07:59:11.707Z,99.90
2023-01-08T08:04:18.069Z,99.90
2023-01-08T08:14:25.815Z,99.90
2023-01-08T08:19:30.885Z,99.90
2023-01-08T08:34:43.682Z,99.90
2023-01-08T08:49:56.983Z,99.90
2023-01-08T09:05:10.562Z,99.90
2023-01-08T09:20:24.028Z,99.90
2023-01-08T09:30:31.949Z,99.90
2023-01-08T09:35:36.913Z,99.90
2023-01-08T09:40:46.653Z,99.90
2023-01-08T09:45:52.734Z,99.90
2023-01-08T09:50:58.379Z,99.90
2023-01-08T09:56:10.335Z,99.90
2023-01-08T10:01:16.822Z,99.90
2023-01-08T10:06:25.310Z,99.90
2023-01-08T10:11:36.653Z,99.90
2023-01-08T10:16:42.378Z,99.90
2023-01-08T10:21:47.575Z,99.90
2023-01-08T10:26:52.625Z,99.90
2023-01-08T10:31:59.283Z,99.90
2023-01-08T10:37:16.775Z,99.90
2023-01-08T10:42:21.715Z,99.90
2023-01-08T10:47:26.823Z,99.90
2023-01-08T10:52:34.075Z,99.90
2023-01-08T10:57:37.666Z,99.90
2023-01-08T11:02:42.044Z,99.90
2023-01-08T11:07:53.477Z,99.90
2023-01-08T11:12:59.878Z,99.90
2023-01-08T11:18:11.640Z,99.50
2023-01-08T11:23:21.107Z,99.30
2023-01-08T11:28:30.705Z,99.80
2023-01-08T11:33:37.465Z,99.20
2023-01-08T11:38:42.493Z,98.20
2023-01-08T11:43:56.686Z,96.90
2023-01-08T11:49:27.660Z,96.30
2023-01-08T11:54:48.890Z,95.30
2023-01-08T12:00:14.220Z,95.00
2023-01-08T12:05:29.852Z,94.30
2023-01-08T12:10:50.932Z,92.90
2023-01-08T12:16:09.112Z,92.30
2023-01-08T12:21:20.305Z,93.20
2023-01-08T12:26:34.877Z,93.30
2023-01-08T12:32:11.240Z,94.00
2023-01-08T12:37:19.293Z,95.30
2023-01-08T12:42:29.822Z,95.80
2023-01-08T12:47:38.214Z,96.30
2023-01-08T12:52:48.374Z,95.50
2023-01-08T12:58:01.531Z,95.30
2023-01-08T13:03:11.218Z,95.50
2023-01-08T13:08:35.421Z,96.10
2023-01-08T13:13:45.042Z,96.50
2023-01-08T13:18:58.019Z,96.30
2023-01-08T13:24:07.494Z,96.00
2023-01-08T13:29:36.548Z,95.60
2023-01-08T13:34:42.337Z,93.70
2023-01-08T13:39:45.958Z,92.60
2023-01-08T13:44:53.367Z,93.20
2023-01-08T13:49:57.448Z,93.60
2023-01-08T13:55:04.312Z,93.80
2023-01-08T14:00:18.384Z,94.70
2023-01-08T14:05:25.722Z,94.90
2023-01-08T14:10:30.210Z,95.10
2023-01-08T14:15:36.616Z,95.10
2023-01-08T14:20:42.997Z,95.70
2023-01-08T14:25:49.502Z,95.40
2023-01-08T14:30:56.898Z,96.90
2023-01-08T14:36:01.970Z,97.50
2023-01-08T14:41:08.931Z,97.60
2023-01-08T14:46:23.073Z,97.90
2023-01-08T14:51:28.620Z,98.30
2023-01-08T14:56:36.375Z,98.40
2023-01-08T15:01:41.889Z,98.70
2023-01-08T15:06:46.142Z,98.90
2023-01-08T15:11:54.346Z,99.00
2023-01-08T15:17:01.316Z,99.00
2023-01-08T15:27:10.712Z,99.10
2023-01-08T15:32:23.735Z,98.50
2023-01-08T15:42:51.129Z,98.30
2023-01-08T15:47:56.254Z,98.30
2023-01-08T16:03:10.671Z,98.20
2023-01-08T16:13:18.369Z,98.40
2023-01-08T16:18:23.482Z,98.80
2023-01-08T16:28:31.055Z,99.00
2023-01-08T16:33:36.445Z,99.10
2023-01-08T16:43:45.408Z,99.10
2023-01-08T16:48:50.765Z,99.00
2023-01-08T16:58:58.312Z,98.90
2023-01-08T17:04:03.398Z,99.20
2023-01-08T17:14:15.229Z,99.00
2023-01-08T17:19:20.759Z,99.10
2023-01-08T17:24:24.407Z,99.40
2023-01-08T17:29:28.098Z,99.60
2023-01-08T17:34:33.181Z,99.60
2023-01-08T17:49:46.175Z,99.90
2023-01-08T17:54:50.466Z,99.90
2023-01-08T17:59:54.098Z,99.90
2023-01-08T18:04:59.640Z,99.90
2023-01-08T18:15:08.577Z,99.90
2023-01-08T18:20:14.249Z,99.90
2023-01-08T18:30:22.471Z,99.90
2023-01-08T18:35:27.480Z,99.90
2023-01-08T18:45:37.775Z,99.90
2023-01-08T18:50:42.987Z,99.90
2023-01-08T19:00:50.746Z,99.90
2023-01-08T19:05:55.773Z,99.90
2023-01-08T19:16:05.362Z,99.90
2023-01-08T19:21:13.957Z,99.90
2023-01-08T19:26:18.520Z,99.90
2023-01-08T19:31:22.111Z,99.90
2023-01-08T19:36:27.243Z,99.90
2023-01-08T19:41:48.297Z,99.90
2023-01-08T19:46:51.864Z,99.90
2023-01-08T19:51:56.828Z,99.90
2023-01-08T19:57:00.388Z,99.90
2023-01-08T20:02:04.477Z,99.90
2023-01-08T20:07:09.454Z,99.90
2023-01-08T20:12:14.095Z,99.90
2023-01-08T20:17:18.523Z,99.90
2023-01-08T20:22:24.940Z,99.90
2023-01-08T20:27:28.578Z,99.90
2023-01-08T20:32:32.401Z,99.90
2023-01-08T20:37:37.409Z,99.90
2023-01-08T20:42:45.759Z,99.90
2023-01-08T20:47:49.375Z,99.90
2023-01-08T20:52:54.525Z,99.90
2023-01-08T20:57:58.131Z,99.90
2023-01-08T21:03:01.786Z,99.90
2023-01-08T21:08:08.142Z,99.90
2023-01-08T21:13:11.741Z,99.70
2023-01-08T21:18:18.143Z,99.70
2023-01-08T21:23:23.105Z,99.90
2023-01-08T21:28:27.813Z,99.90
2023-01-08T21:33:31.501Z,99.90
2023-01-08T21:38:37.770Z,99.90
2023-01-08T21:43:59.127Z,99.90
2023-01-08T21:49:02.797Z,99.90
2023-01-08T21:54:07.798Z,99.90
2023-01-08T21:59:11.411Z,99.80
2023-01-08T22:04:15.035Z,99.80
2023-01-08T22:09:20.498Z,99.70
2023-01-08T22:14:24.342Z,99.70
2023-01-08T22:19:27.990Z,99.70
2023-01-08T22:24:33.003Z,99.60
2023-01-08T22:29:36.885Z,99.80
2023-01-08T22:34:40.862Z,99.50
2023-01-08T22:39:47.058Z,99.40
2023-01-08T22:44:50.887Z,99.60
2023-01-08T22:49:54.482Z,99.70
2023-01-08T22:54:59.495Z,99.80
2023-01-08T23:00:04.264Z,99.90
2023-01-08T23:05:08.453Z,99.90
2023-01-08T23:10:13.806Z,99.90
2023-01-08T23:15:18.180Z,99.80
2023-01-08T23:20:24.039Z,99.70
2023-01-08T23:25:30.185Z,99.90
